UATG/GUW METAR and TAF weather

Enter ICAO airport designator
Station Type Date Time Source
UATG METAR 2020/07/05 02:30 UTC NOAA

UATG 050230Z VRB01MPS CAVOK 23/05 Q1013 R32/CLRD70 NOSIG RMK QFE761/1015


Station Type Date Time Source
UATG Decoded METAR 2020/07/05 02:30 UTC NOAA

Station name not available
Jul 04, 2020 - 10:30 PM EDT / 2020.07.05 0230 UTC
Wind: Variable at 2 MPH (2 KT):0
Visibility: greater than 7 mile(s):0
Temperature: 73 F (23 C)
Dew Point: 41 F (5 C)
Relative Humidity: 31%
Pressure (altimeter): 29.91 in. Hg (1013 hPa)
ob: UATG 050230Z VRB01MPS CAVOK 23/05 Q1013 R32/CLRD70 NOSIG RMK QFE761/1015
cycle: 2

Station Type Date Time Source
UATG TAF 2020/07/04 18:21 UTC NOAA

TAF UATG 041701Z 0418/0518 VRB03MPS CAVOK TX38/0508Z TN19/0500Z
BECMG 0508/0510 23007MPS

Example: see airport list